createdAt,value
2023-02-05T00:00:39.465Z,21.15
2023-02-05T00:02:47.839Z,19.55
2023-02-05T00:06:58.741Z,16.75
2023-02-05T00:09:03.645Z,19.08
2023-02-05T00:11:10.756Z,16.00
2023-02-05T00:13:15.713Z,12.63
2023-02-05T00:15:21.164Z,15.82
2023-02-05T00:17:26.379Z,12.23
2023-02-05T00:19:34.196Z,14.23
2023-02-05T00:21:39.544Z,14.32
2023-02-05T00:23:45.276Z,14.52
2023-02-05T00:25:50.203Z,11.98
2023-02-05T00:27:55.536Z,15.10
2023-02-05T00:30:00.908Z,15.85
2023-02-05T00:32:06.516Z,15.18
2023-02-05T00:34:11.443Z,13.18
2023-02-05T00:36:21.646Z,14.55
2023-02-05T00:38:26.746Z,12.93
2023-02-05T00:40:32.039Z,16.90
2023-02-05T00:42:37.470Z,15.77
2023-02-05T00:44:42.707Z,15.13
2023-02-05T00:46:47.610Z,13.40
2023-02-05T00:48:52.888Z,13.43
2023-02-05T00:50:58.417Z,14.52
2023-02-05T00:53:05.965Z,14.23
2023-02-05T00:55:12.436Z,15.05
2023-02-05T00:57:17.758Z,13.18
2023-02-05T00:59:24.010Z,13.73
2023-02-05T01:01:29.051Z,13.27
2023-02-05T01:03:35.276Z,10.95
2023-02-05T01:05:41.920Z,14.05
2023-02-05T01:07:46.865Z,13.38
2023-02-05T01:09:54.849Z,11.18
2023-02-05T01:12:00.500Z,12.35
2023-02-05T01:14:05.893Z,10.00
2023-02-05T01:16:12.270Z,15.00
2023-02-05T01:18:17.650Z,14.75
2023-02-05T01:20:23.154Z,14.25
2023-02-05T01:22:28.906Z,13.00
2023-02-05T01:24:34.421Z,13.55
2023-02-05T01:26:42.022Z,14.65
2023-02-05T01:28:47.606Z,12.32
2023-02-05T01:30:53.865Z,11.70
2023-02-05T01:32:58.851Z,14.25
2023-02-05T01:35:04.119Z,11.98
2023-02-05T01:37:09.000Z,12.52
2023-02-05T01:39:14.955Z,11.15
2023-02-05T01:41:20.179Z,12.45
2023-02-05T01:43:27.706Z,12.30
2023-02-05T01:48:04.166Z,11.20
2023-02-05T01:50:10.103Z,12.27
2023-02-05T01:52:18.660Z,11.95
2023-02-05T01:54:29.357Z,13.57
2023-02-05T01:56:39.101Z,12.60
2023-02-05T01:58:52.222Z,10.40
2023-02-05T02:00:58.916Z,10.20
2023-02-05T02:03:04.403Z,9.15
2023-02-05T02:05:15.215Z,10.20
2023-02-05T02:07:24.559Z,9.77
2023-02-05T02:09:30.089Z,7.90
2023-02-05T02:11:40.756Z,10.40
2023-02-05T02:13:51.265Z,12.77
2023-02-05T02:15:58.293Z,14.77
2023-02-05T02:18:18.665Z,14.40
2023-02-05T02:20:26.236Z,13.00
2023-02-05T02:22:46.530Z,15.15
2023-02-05T02:25:36.794Z,12.93
2023-02-05T02:27:51.118Z,12.70
2023-02-05T02:30:01.424Z,13.45
2023-02-05T02:32:17.569Z,11.27
2023-02-05T02:34:32.895Z,10.68
2023-02-05T02:36:50.059Z,10.52
2023-02-05T02:39:04.062Z,10.45
2023-02-05T02:41:15.750Z,11.95
2023-02-05T02:43:29.525Z,13.30
2023-02-05T02:45:38.348Z,13.68
2023-02-05T02:47:50.387Z,13.48
2023-02-05T02:50:04.333Z,14.13
2023-02-05T02:52:12.451Z,14.45
2023-02-05T02:54:21.594Z,12.98
2023-02-05T02:56:30.417Z,14.82
2023-02-05T02:58:42.836Z,12.32
2023-02-05T03:00:50.276Z,15.63
2023-02-05T03:03:04.019Z,13.80
2023-02-05T03:05:15.840Z,10.63
2023-02-05T03:07:27.392Z,11.65
2023-02-05T03:09:40.965Z,10.52
2023-02-05T03:11:46.249Z,10.45
2023-02-05T03:13:54.656Z,11.00
2023-02-05T03:16:03.555Z,11.50
2023-02-05T03:18:08.882Z,13.55
2023-02-05T03:20:23.382Z,12.95
2023-02-05T03:22:28.578Z,11.88
2023-02-05T03:24:35.039Z,11.13
2023-02-05T03:26:42.635Z,11.25
2023-02-05T03:28:56.265Z,7.50
2023-02-05T03:31:11.189Z,10.93
2023-02-05T03:33:33.596Z,9.40
2023-02-05T03:35:48.795Z,8.60
2023-02-05T03:38:11.369Z,7.35
2023-02-05T03:40:27.401Z,8.13
2023-02-05T03:42:47.414Z,6.82
2023-02-05T03:45:22.805Z,10.50
2023-02-05T03:47:41.333Z,13.48
2023-02-05T03:49:54.882Z,10.38
2023-02-05T03:52:05.969Z,12.15
2023-02-05T03:54:21.053Z,11.90
2023-02-05T03:56:34.142Z,13.02
2023-02-05T03:58:45.029Z,12.52
2023-02-05T04:00:52.958Z,14.02
2023-02-05T04:03:01.320Z,12.48
2023-02-05T04:05:10.922Z,13.82
2023-02-05T04:07:20.785Z,13.95
2023-02-05T04:09:27.322Z,14.23
2023-02-05T04:11:34.569Z,13.40
2023-02-05T04:15:54.524Z,13.60
2023-02-05T04:18:00.197Z,14.05
2023-02-05T04:20:09.614Z,10.30
2023-02-05T04:22:15.346Z,12.68
2023-02-05T04:26:28.293Z,14.70
2023-02-05T04:28:40.983Z,12.90
2023-02-05T04:30:46.892Z,11.30
2023-02-05T04:32:57.731Z,13.63
2023-02-05T04:35:03.113Z,12.65
2023-02-05T04:37:09.384Z,12.40
2023-02-05T04:39:14.467Z,17.10
2023-02-05T04:41:20.012Z,15.10
2023-02-05T04:43:25.810Z,17.52
2023-02-05T04:45:31.340Z,13.50
2023-02-05T04:47:38.383Z,19.23
2023-02-05T04:49:45.841Z,12.98
2023-02-05T04:51:50.715Z,14.10
2023-02-05T04:53:56.087Z,14.10
2023-02-05T04:56:09.478Z,16.45
2023-02-05T04:58:15.105Z,13.27
2023-02-05T05:00:20.764Z,12.20
2023-02-05T05:02:25.963Z,12.35
2023-02-05T05:04:31.242Z,12.82
2023-02-05T05:06:39.093Z,13.98
2023-02-05T05:10:49.507Z,14.80
2023-02-05T05:12:54.933Z,14.98
2023-02-05T05:15:00.338Z,13.77
2023-02-05T05:17:05.927Z,15.70
2023-02-05T05:19:11.141Z,13.93
2023-02-05T05:21:16.305Z,14.10
2023-02-05T05:23:24.560Z,12.02
2023-02-05T05:25:29.682Z,11.75
2023-02-05T05:27:34.651Z,12.95
2023-02-05T05:29:40.868Z,15.82
2023-02-05T05:31:46.475Z,12.45
2023-02-05T05:33:52.192Z,15.70
2023-02-05T05:35:58.386Z,13.35
2023-02-05T05:38:04.032Z,14.27
2023-02-05T05:40:27.943Z,15.00
2023-02-05T05:42:45.307Z,13.07
2023-02-05T05:44:52.225Z,14.23
2023-02-05T05:46:57.124Z,17.23
2023-02-05T05:49:04.282Z,14.55
2023-02-05T05:51:09.290Z,16.50
2023-02-05T05:53:14.381Z,15.90
2023-02-05T05:55:21.904Z,18.30
2023-02-05T05:57:26.763Z,15.57
2023-02-05T05:59:31.786Z,16.98
2023-02-05T06:01:36.684Z,17.17
2023-02-05T06:03:42.356Z,13.57
2023-02-05T06:05:47.219Z,15.10
2023-02-05T06:07:52.710Z,16.02
2023-02-05T06:09:57.613Z,16.40
2023-02-05T06:12:05.773Z,13.23
2023-02-05T06:14:10.616Z,20.55
2023-02-05T06:16:15.516Z,13.45
2023-02-05T06:18:23.699Z,15.27
2023-02-05T06:22:34.164Z,11.02
2023-02-05T06:24:39.038Z,11.70
2023-02-05T06:26:44.236Z,13.70
2023-02-05T06:28:51.736Z,12.80
2023-02-05T06:30:56.698Z,7.13
2023-02-05T06:33:01.574Z,12.10
2023-02-05T06:35:07.344Z,10.88
2023-02-05T06:37:12.647Z,9.73
2023-02-05T06:39:19.430Z,11.18
2023-02-05T06:41:25.351Z,10.95
2023-02-05T06:43:30.397Z,9.15
2023-02-05T06:45:38.081Z,9.43
2023-02-05T06:47:42.968Z,15.23
2023-02-05T06:49:48.199Z,8.95
2023-02-05T06:54:00.205Z,15.82
2023-02-05T06:56:05.091Z,12.98
2023-02-05T06:58:10.840Z,9.93
2023-02-05T07:00:18.429Z,9.50
2023-02-05T07:02:25.972Z,9.73
2023-02-05T07:04:31.412Z,8.52
2023-02-05T07:06:36.538Z,10.65
2023-02-05T07:08:41.868Z,10.82
2023-02-05T07:10:46.950Z,7.32
2023-02-05T07:12:51.806Z,6.00
2023-02-05T07:14:57.605Z,5.03
2023-02-05T07:17:02.592Z,6.10
2023-02-05T07:19:11.754Z,6.65
2023-02-05T07:21:19.298Z,10.48
2023-02-05T07:23:24.182Z,6.53
2023-02-05T07:25:33.365Z,6.47
2023-02-05T07:27:39.171Z,7.03
2023-02-05T07:29:44.072Z,6.97
2023-02-05T07:31:49.661Z,6.35
2023-02-05T07:33:54.534Z,7.15
2023-02-05T07:36:06.004Z,7.85
2023-02-05T07:38:13.087Z,6.38
2023-02-05T07:40:19.884Z,6.10
2023-02-05T07:42:24.837Z,7.85
2023-02-05T07:44:35.089Z,7.60
2023-02-05T07:46:40.079Z,12.10
2023-02-05T07:48:45.423Z,7.93
2023-02-05T07:50:53.617Z,8.00
2023-02-05T07:53:01.110Z,10.77
2023-02-05T07:55:06.054Z,8.30
2023-02-05T07:57:10.925Z,9.30
2023-02-05T07:59:15.817Z,7.97
2023-02-05T08:01:21.336Z,7.38
2023-02-05T08:03:26.262Z,8.43
2023-02-05T08:05:31.186Z,8.57
2023-02-05T08:07:37.420Z,9.60
2023-02-05T08:09:44.980Z,8.40
2023-02-05T08:11:49.899Z,8.23
2023-02-05T08:13:55.135Z,10.27
2023-02-05T08:16:00.341Z,7.30
2023-02-05T08:18:05.942Z,7.97
2023-02-05T08:20:12.954Z,6.93
2023-02-05T08:22:18.537Z,7.70
2023-02-05T08:24:23.442Z,7.10
2023-02-05T08:26:31.231Z,9.15
2023-02-05T08:28:37.016Z,7.55
2023-02-05T08:30:43.022Z,9.32
2023-02-05T08:32:51.072Z,9.68
2023-02-05T08:34:56.243Z,8.98
2023-02-05T08:37:01.212Z,9.70
2023-02-05T08:39:07.083Z,9.70
2023-02-05T08:41:15.174Z,9.48
2023-02-05T08:43:23.002Z,12.15
2023-02-05T08:45:28.449Z,8.30
2023-02-05T08:47:33.367Z,9.07
2023-02-05T08:49:38.451Z,10.23
2023-02-05T08:51:43.739Z,10.30
2023-02-05T08:53:49.572Z,9.93
2023-02-05T08:55:58.294Z,10.82
2023-02-05T08:58:03.275Z,9.98
2023-02-05T09:00:15.060Z,11.30
2023-02-05T09:02:19.948Z,10.70
2023-02-05T09:04:25.905Z,11.07
2023-02-05T09:06:31.231Z,10.88
2023-02-05T09:08:36.462Z,14.48
2023-02-05T09:10:41.397Z,17.83
2023-02-05T09:12:46.306Z,14.98
2023-02-05T09:14:52.196Z,11.38
2023-02-05T09:16:59.662Z,11.43
2023-02-05T09:19:04.758Z,12.45
2023-02-05T09:21:12.119Z,16.23
2023-02-05T09:23:19.602Z,12.05
2023-02-05T09:27:31.216Z,12.07
2023-02-05T09:31:40.516Z,10.30
2023-02-05T09:33:48.492Z,12.45
2023-02-05T09:37:57.241Z,17.23
2023-02-05T09:42:38.767Z,10.13
2023-02-05T09:45:06.153Z,14.65
2023-02-05T09:47:21.833Z,13.23
2023-02-05T09:49:34.957Z,11.52
2023-02-05T09:51:46.142Z,13.27
2023-02-05T09:53:57.784Z,14.70
2023-02-05T09:56:04.251Z,15.55
2023-02-05T09:58:16.393Z,16.45
2023-02-05T10:00:27.535Z,15.73
2023-02-05T10:02:39.383Z,15.25
2023-02-05T10:04:46.888Z,15.07
2023-02-05T10:07:20.709Z,13.77
2023-02-05T10:09:54.301Z,15.00
2023-02-05T10:12:08.758Z,13.30
2023-02-05T10:14:29.573Z,13.77
2023-02-05T10:16:56.556Z,14.00
2023-02-05T10:19:29.249Z,15.25
2023-02-05T10:22:11.033Z,13.23
2023-02-05T10:24:48.052Z,11.70
2023-02-05T10:26:54.749Z,14.02
2023-02-05T10:29:25.569Z,11.63
2023-02-05T10:31:44.276Z,12.38
2023-02-05T10:33:56.576Z,13.50
2023-02-05T10:36:06.231Z,15.20
2023-02-05T10:38:27.675Z,13.88
2023-02-05T10:40:40.754Z,15.10
2023-02-05T10:42:50.472Z,13.20
2023-02-05T10:45:05.625Z,14.13
2023-02-05T10:47:18.078Z,15.68
2023-02-05T10:49:29.235Z,16.13
2023-02-05T10:51:40.954Z,16.65
2023-02-05T10:53:49.205Z,14.82
2023-02-05T10:55:54.458Z,14.27
2023-02-05T10:57:59.516Z,12.93
2023-02-05T11:00:09.560Z,15.75
2023-02-05T11:02:14.657Z,19.23
2023-02-05T11:04:24.766Z,15.25
2023-02-05T11:06:34.601Z,14.52
2023-02-05T11:08:43.850Z,16.05
2023-02-05T11:10:56.664Z,13.77
2023-02-05T11:13:07.832Z,16.90
2023-02-05T11:15:24.242Z,20.35
2023-02-05T11:17:35.459Z,20.00
2023-02-05T11:19:41.327Z,16.67
2023-02-05T11:21:54.114Z,16.67
2023-02-05T11:24:00.814Z,19.75
2023-02-05T11:26:13.612Z,20.52
2023-02-05T11:28:25.704Z,18.67
2023-02-05T11:30:50.817Z,20.88
2023-02-05T11:32:57.132Z,20.55
2023-02-05T11:35:20.452Z,19.08
2023-02-05T11:37:26.097Z,18.60
2023-02-05T11:39:37.066Z,14.88
2023-02-05T11:41:52.231Z,18.80
2023-02-05T11:43:58.470Z,23.30
2023-02-05T11:46:06.104Z,26.48
2023-02-05T11:50:33.451Z,25.67
2023-02-05T11:52:43.620Z,26.10
2023-02-05T11:54:50.833Z,21.83
2023-02-05T11:57:39.654Z,20.17
2023-02-05T11:59:44.697Z,15.63
2023-02-05T12:01:49.688Z,15.98
2023-02-05T12:04:02.650Z,14.10
2023-02-05T12:06:17.502Z,16.13
2023-02-05T12:08:35.017Z,16.92
2023-02-05T12:10:47.010Z,14.02
2023-02-05T12:13:08.815Z,16.17
2023-02-05T12:15:22.469Z,13.90
2023-02-05T12:17:40.095Z,13.95
2023-02-05T12:19:55.595Z,20.58
2023-02-05T12:22:10.352Z,16.90
2023-02-05T12:24:57.847Z,19.80
2023-02-05T12:27:16.984Z,19.98
2023-02-05T12:29:52.658Z,16.00
2023-02-05T12:32:09.187Z,16.33
2023-02-05T12:34:27.977Z,15.80
2023-02-05T12:36:51.471Z,17.50
2023-02-05T12:39:08.904Z,14.20
2023-02-05T12:41:28.687Z,13.32
2023-02-05T12:43:41.246Z,15.73
2023-02-05T12:45:58.406Z,13.75
2023-02-05T12:48:47.224Z,14.68
2023-02-05T12:51:09.568Z,18.60
2023-02-05T12:53:33.465Z,16.48
2023-02-05T12:55:54.345Z,14.75
2023-02-05T12:58:04.539Z,16.45
2023-02-05T13:00:23.010Z,23.17
2023-02-05T13:02:39.968Z,19.42
2023-02-05T13:04:49.325Z,17.75
2023-02-05T13:07:00.820Z,17.33
2023-02-05T13:09:18.760Z,20.15
2023-02-05T13:11:29.511Z,21.67
2023-02-05T13:13:47.081Z,20.02
2023-02-05T13:16:05.792Z,17.15
2023-02-05T13:18:23.258Z,16.58
2023-02-05T13:20:46.830Z,19.02
2023-02-05T13:23:10.602Z,17.67
2023-02-05T13:25:38.690Z,17.42
2023-02-05T13:28:04.257Z,17.73
2023-02-05T13:30:18.047Z,14.73
2023-02-05T13:32:31.187Z,18.10
2023-02-05T13:34:38.693Z,16.50
2023-02-05T13:37:11.512Z,16.77
2023-02-05T13:40:03.722Z,16.27
2023-02-05T13:42:47.498Z,16.60
2023-02-05T13:45:32.697Z,17.45
2023-02-05T13:48:16.196Z,19.70
2023-02-05T13:51:21.666Z,16.60
2023-02-05T13:53:55.801Z,16.10
2023-02-05T13:56:48.506Z,20.40
2023-02-05T13:58:57.607Z,19.77
2023-02-05T14:01:06.432Z,20.08
2023-02-05T14:03:25.312Z,19.25
2023-02-05T14:05:33.580Z,17.58
2023-02-05T14:09:56.799Z,31.05
2023-02-05T14:12:04.420Z,25.52
2023-02-05T14:14:28.193Z,26.05
2023-02-05T14:16:38.418Z,27.77
2023-02-05T14:18:52.764Z,33.17
2023-02-05T14:20:58.064Z,28.13
2023-02-05T14:23:14.322Z,27.48
2023-02-05T14:26:03.675Z,37.00
2023-02-05T14:28:54.144Z,31.88
2023-02-05T14:31:01.247Z,32.10
2023-02-05T14:33:26.211Z,27.08
2023-02-05T14:35:38.196Z,25.77
2023-02-05T14:37:46.013Z,21.80
2023-02-05T14:39:54.994Z,26.08
2023-02-05T14:42:01.331Z,29.90
2023-02-05T14:44:19.997Z,24.92
2023-02-05T14:46:33.744Z,29.92
2023-02-05T14:48:45.677Z,27.55
2023-02-05T14:51:02.726Z,25.05
2023-02-05T14:53:11.786Z,23.70
2023-02-05T14:55:29.041Z,23.73
2023-02-05T14:57:45.509Z,26.50
2023-02-05T14:59:58.093Z,21.20
2023-02-05T15:02:04.252Z,19.08
2023-02-05T15:04:29.165Z,23.02
2023-02-05T15:06:43.187Z,20.77
2023-02-05T15:09:00.458Z,22.48
2023-02-05T15:11:18.543Z,21.17
2023-02-05T15:13:26.336Z,22.85
2023-02-05T15:15:36.388Z,22.23
2023-02-05T15:17:54.721Z,22.48
2023-02-05T15:20:04.711Z,26.10
2023-02-05T15:22:28.586Z,31.15
2023-02-05T15:24:38.554Z,23.10
2023-02-05T15:26:52.677Z,19.25
2023-02-05T15:29:03.996Z,20.10
2023-02-05T15:31:27.772Z,16.85
2023-02-05T15:33:48.361Z,16.10
2023-02-05T15:35:54.489Z,16.95
2023-02-05T15:38:05.912Z,16.70
2023-02-05T15:40:24.379Z,18.73
2023-02-05T15:42:39.376Z,17.85
2023-02-05T15:44:44.284Z,18.77
2023-02-05T15:46:50.682Z,16.85
2023-02-05T15:48:55.970Z,19.08
2023-02-05T15:51:08.018Z,20.58
2023-02-05T15:53:35.861Z,21.58
2023-02-05T15:55:42.818Z,20.50
2023-02-05T15:57:52.130Z,25.83
2023-02-05T15:59:59.394Z,19.38
2023-02-05T16:02:18.653Z,23.20
2023-02-05T16:04:32.923Z,22.83
2023-02-05T16:06:40.238Z,21.63
2023-02-05T16:08:49.271Z,21.85
2023-02-05T16:11:02.031Z,24.73
2023-02-05T16:13:18.625Z,23.42
2023-02-05T16:15:24.555Z,26.40
2023-02-05T16:17:36.018Z,28.02
2023-02-05T16:19:49.675Z,28.23
2023-02-05T16:22:01.840Z,31.98
2023-02-05T16:24:11.933Z,44.22
2023-02-05T16:26:22.877Z,37.50
2023-02-05T16:28:38.648Z,51.75
2023-02-05T16:30:46.357Z,38.85
2023-02-05T16:32:52.046Z,29.27
2023-02-05T16:34:57.325Z,30.38
2023-02-05T16:37:10.112Z,27.02
2023-02-05T16:39:23.708Z,24.52
2023-02-05T16:41:32.261Z,22.50
2023-02-05T16:43:43.517Z,26.77
2023-02-05T16:46:24.545Z,25.50
2023-02-05T16:48:32.704Z,29.58
2023-02-05T16:50:44.048Z,29.45
2023-02-05T16:52:59.736Z,29.17
2023-02-05T16:55:10.264Z,27.05
2023-02-05T16:57:25.778Z,22.58
2023-02-05T16:59:38.082Z,24.35
2023-02-05T17:01:46.791Z,26.85
2023-02-05T17:03:53.326Z,24.65
2023-02-05T17:06:02.794Z,20.95
2023-02-05T17:08:12.465Z,22.88
2023-02-05T17:10:22.729Z,28.02
2023-02-05T17:12:42.365Z,23.45
2023-02-05T17:14:58.374Z,22.35
2023-02-05T17:17:06.345Z,22.42
2023-02-05T17:21:32.869Z,24.42
2023-02-05T17:23:37.845Z,25.25
2023-02-05T17:25:51.813Z,25.55
2023-02-05T17:27:57.551Z,26.88
2023-02-05T17:30:08.606Z,26.85
2023-02-05T17:32:19.503Z,23.85
2023-02-05T17:34:24.437Z,25.98
2023-02-05T17:36:29.854Z,25.70
2023-02-05T17:38:35.057Z,24.65
2023-02-05T17:40:40.023Z,23.80
2023-02-05T17:42:45.411Z,23.13
2023-02-05T17:44:53.248Z,25.17
2023-02-05T17:47:01.468Z,27.45
2023-02-05T17:51:22.552Z,28.77
2023-02-05T17:53:27.522Z,28.98
2023-02-05T17:55:33.395Z,27.08
2023-02-05T17:57:39.395Z,26.30
2023-02-05T17:59:45.335Z,27.27
2023-02-05T18:01:51.789Z,25.38
2023-02-05T18:03:59.869Z,30.25
2023-02-05T18:06:05.028Z,66.03
2023-02-05T18:08:10.182Z,56.55
2023-02-05T18:10:18.041Z,38.75
2023-02-05T18:12:23.762Z,34.55
2023-02-05T18:14:29.072Z,30.77
2023-02-05T18:16:34.977Z,28.83
2023-02-05T18:18:41.454Z,30.35
2023-02-05T18:20:49.019Z,32.83
2023-02-05T18:22:54.064Z,27.40
2023-02-05T18:24:59.058Z,27.25
2023-02-05T18:27:04.833Z,30.92
2023-02-05T18:29:09.854Z,29.83
2023-02-05T18:31:15.205Z,32.28
2023-02-05T18:33:20.195Z,36.03
2023-02-05T18:35:25.836Z,37.40
2023-02-05T18:37:33.385Z,34.17
2023-02-05T18:39:38.322Z,34.97
2023-02-05T18:41:43.732Z,32.13
2023-02-05T18:43:48.708Z,30.17
2023-02-05T18:45:55.585Z,40.97
2023-02-05T18:48:01.308Z,32.88
2023-02-05T18:50:10.307Z,30.93
2023-02-05T18:52:15.573Z,28.33
2023-02-05T18:54:23.474Z,28.75
2023-02-05T18:56:30.813Z,29.60
2023-02-05T18:58:36.844Z,31.33
2023-02-05T19:00:41.734Z,26.60
2023-02-05T19:02:47.161Z,28.08
2023-02-05T19:04:56.046Z,29.17
2023-02-05T19:07:01.330Z,35.00
2023-02-05T19:09:07.543Z,33.75
2023-02-05T19:11:18.673Z,33.95
2023-02-05T19:13:23.598Z,30.85
2023-02-05T19:15:28.504Z,29.63
2023-02-05T19:17:35.961Z,33.05
2023-02-05T19:19:41.265Z,29.95
2023-02-05T19:21:48.898Z,30.25
2023-02-05T19:23:56.634Z,32.85
2023-02-05T19:26:06.574Z,34.55
2023-02-05T19:28:14.131Z,33.28
2023-02-05T19:30:19.711Z,31.77
2023-02-05T19:32:25.184Z,30.38
2023-02-05T19:34:30.356Z,36.40
2023-02-05T19:36:35.834Z,32.20
2023-02-05T19:38:43.594Z,32.83
2023-02-05T19:40:48.865Z,32.28
2023-02-05T19:42:56.891Z,35.60
2023-02-05T19:45:04.490Z,32.60
2023-02-05T19:47:10.051Z,32.83
2023-02-05T19:49:17.737Z,32.50
2023-02-05T19:51:23.870Z,33.55
2023-02-05T19:53:28.815Z,33.55
2023-02-05T19:55:35.958Z,36.88
2023-02-05T19:57:43.196Z,32.13
2023-02-05T19:59:48.113Z,30.45
2023-02-05T20:01:55.667Z,31.10
2023-02-05T20:04:03.065Z,30.70
2023-02-05T20:06:11.569Z,37.70
2023-02-05T20:08:17.135Z,32.17
2023-02-05T20:10:23.053Z,38.40
2023-02-05T20:12:29.715Z,34.80
2023-02-05T20:14:34.704Z,31.10
2023-02-05T20:16:42.312Z,36.38
2023-02-05T20:18:50.773Z,34.17
2023-02-05T20:20:55.754Z,33.97
2023-02-05T20:23:00.714Z,34.83
2023-02-05T20:27:12.835Z,39.85
2023-02-05T20:29:30.482Z,38.53
2023-02-05T20:33:50.268Z,36.45
2023-02-05T20:35:55.233Z,43.92
2023-02-05T20:38:01.204Z,32.95
2023-02-05T20:40:06.396Z,32.70
2023-02-05T20:42:13.527Z,35.55
2023-02-05T20:44:20.357Z,35.40
2023-02-05T20:46:25.761Z,34.50
2023-02-05T20:48:32.332Z,36.08
2023-02-05T20:50:42.201Z,34.10
2023-02-05T20:52:47.092Z,35.55
2023-02-05T20:54:52.006Z,38.63
2023-02-05T20:56:59.376Z,35.13
2023-02-05T20:59:09.291Z,36.27
2023-02-05T21:01:16.774Z,40.05
2023-02-05T21:03:21.609Z,42.63
2023-02-05T21:05:26.580Z,37.95
2023-02-05T21:07:35.945Z,30.38
2023-02-05T21:09:40.823Z,28.98
2023-02-05T21:11:46.799Z,22.65
2023-02-05T21:13:53.943Z,27.95
2023-02-05T21:16:02.147Z,24.42
2023-02-05T21:18:08.636Z,26.38
2023-02-05T21:20:13.967Z,27.73
2023-02-05T21:22:18.838Z,23.77
2023-02-05T21:24:27.920Z,26.85
2023-02-05T21:26:36.362Z,26.70
2023-02-05T21:28:41.587Z,26.85
2023-02-05T21:30:51.940Z,26.70
2023-02-05T21:32:56.822Z,27.83
2023-02-05T21:35:02.627Z,23.60
2023-02-05T21:37:07.534Z,29.63
2023-02-05T21:39:16.095Z,29.38
2023-02-05T21:41:24.125Z,31.00
2023-02-05T21:43:28.985Z,27.30
2023-02-05T21:45:36.106Z,27.85
2023-02-05T21:47:42.311Z,25.77
2023-02-05T21:49:47.737Z,25.88
2023-02-05T21:51:53.365Z,29.00
2023-02-05T21:54:00.680Z,32.15
2023-02-05T21:56:06.862Z,30.05
2023-02-05T21:58:14.648Z,26.45
2023-02-05T22:00:20.612Z,32.45
2023-02-05T22:02:26.114Z,32.03
2023-02-05T22:04:31.436Z,29.42
2023-02-05T22:06:38.470Z,30.02
2023-02-05T22:08:46.554Z,30.27
2023-02-05T22:12:57.873Z,25.35
2023-02-05T22:15:05.341Z,29.92
2023-02-05T22:17:10.842Z,31.42
2023-02-05T22:19:15.965Z,31.02
2023-02-05T22:21:23.230Z,28.90
2023-02-05T22:23:32.150Z,29.80
2023-02-05T22:25:37.470Z,31.27
2023-02-05T22:27:42.895Z,26.45
2023-02-05T22:29:48.218Z,28.17
2023-02-05T22:31:56.871Z,28.75
2023-02-05T22:34:02.396Z,29.30
2023-02-05T22:36:09.299Z,28.40
2023-02-05T22:38:14.219Z,31.23
2023-02-05T22:40:22.340Z,29.70
2023-02-05T22:42:31.889Z,36.13
2023-02-05T22:44:36.860Z,31.50
2023-02-05T22:46:44.783Z,27.92
2023-02-05T22:50:59.237Z,28.60
2023-02-05T22:53:04.129Z,30.67
2023-02-05T22:55:10.051Z,28.55
2023-02-05T22:57:15.531Z,32.42
2023-02-05T22:59:20.454Z,30.20
2023-02-05T23:01:28.697Z,32.63
2023-02-05T23:03:33.751Z,29.58
2023-02-05T23:05:41.241Z,28.65
2023-02-05T23:07:46.530Z,29.00
2023-02-05T23:09:51.750Z,30.15
2023-02-05T23:11:58.158Z,30.85
2023-02-05T23:14:05.670Z,29.92
2023-02-05T23:16:12.980Z,29.23
2023-02-05T23:18:17.926Z,27.00
2023-02-05T23:20:23.777Z,31.70
2023-02-05T23:22:31.346Z,31.60
2023-02-05T23:26:49.194Z,35.13
2023-02-05T23:28:56.220Z,32.58
2023-02-05T23:31:01.222Z,35.83
2023-02-05T23:33:06.959Z,33.53
2023-02-05T23:35:11.879Z,38.10
2023-02-05T23:37:17.631Z,32.72
2023-02-05T23:39:25.276Z,34.75
2023-02-05T23:41:40.423Z,36.33
2023-02-05T23:43:45.399Z,35.22
2023-02-05T23:45:50.987Z,35.17
2023-02-05T23:47:56.412Z,36.35
2023-02-05T23:50:01.379Z,38.13
2023-02-05T23:52:07.886Z,39.40
2023-02-05T23:54:14.356Z,38.25
2023-02-05T23:56:22.364Z,37.42
2023-02-05T23:58:28.336Z,32.45
